Time;durP1;ratioP1;P1;durP2;ratioP2;P2;SDS_P1;SDS_P2;PMS_P1;PMS_P2;Temp;Humidity;BMP_temperature;BMP_pressure;BME280_temperature;BME280_humidity;BME280_pressure;Samples;Min_cycle;Max_cycle;Signal;HPM_P1;HPM_P2
2021/05/21 00:02:01;;;;;;;3.20;1.20;;;14.00;80.90;;;;;;6212489;23;20013;-68
2021/05/21 00:04:27;;;;;;;2.17;1.30;;;14.00;80.60;;;;;;6213429;23;20433;-68
2021/05/21 00:06:53;;;;;;;4.03;1.27;;;14.00;80.60;;;;;;6213110;23;20016;-68
2021/05/21 00:09:18;;;;;;;1.75;1.13;;;14.00;80.60;;;;;;6210711;23;20084;-71
2021/05/21 00:11:44;;;;;;;3.72;1.50;;;14.00;80.70;;;;;;6213263;23;20015;-74
2021/05/21 00:14:09;;;;;;;2.05;1.20;;;14.00;80.30;;;;;;6212686;23;20000;-74
2021/05/21 00:16:35;;;;;;;2.38;1.40;;;14.00;80.30;;;;;;6213103;23;20410;-73
2021/05/21 00:19:00;;;;;;;3.10;1.20;;;14.00;80.70;;;;;;6212050;23;20087;-68
2021/05/21 00:21:26;;;;;;;3.88;1.60;;;14.10;81.10;;;;;;6212650;23;20414;-71
2021/05/21 00:23:52;;;;;;;2.25;1.48;;;14.10;81.10;;;;;;6212800;23;20009;-73
2021/05/21 00:26:17;;;;;;;2.28;1.60;;;14.10;80.80;;;;;;6213304;23;20063;-72
2021/05/21 00:28:43;;;;;;;2.70;1.50;;;14.00;81.50;;;;;;6212113;23;20005;-74
2021/05/21 00:31:08;;;;;;;3.22;1.40;;;14.00;82.00;;;;;;6213243;23;20098;-75
2021/05/21 00:33:34;;;;;;;2.03;1.23;;;14.00;81.90;;;;;;6211410;23;20496;-74
2021/05/21 00:35:59;;;;;;;2.63;1.38;;;14.10;81.60;;;;;;6212135;23;20330;-75
2021/05/21 00:38:25;;;;;;;3.15;1.38;;;14.00;81.10;;;;;;6213319;23;20047;-75
2021/05/21 00:40:50;;;;;;;1.60;1.38;;;14.00;81.40;;;;;;6212962;23;20004;-73
2021/05/21 00:43:16;;;;;;;3.25;1.48;;;14.10;81.60;;;;;;6212325;23;20058;-72
2021/05/21 00:45:42;;;;;;;4.00;1.30;;;14.10;81.60;;;;;;6212954;23;20076;-74
2021/05/21 00:48:08;;;;;;;4.82;1.52;;;14.10;81.20;;;;;;6213237;23;20009;-74
2021/05/21 00:50:34;;;;;;;2.78;1.40;;;14.10;80.90;;;;;;6211936;23;20482;-73
2021/05/21 00:53:02;;;;;;;1.55;1.23;;;14.10;81.00;;;;;;6212909;23;20086;-74
2021/05/21 00:55:28;;;;;;;2.08;1.30;;;14.10;81.00;;;;;;6213185;23;20003;-73
2021/05/21 00:57:53;;;;;;;2.67;1.30;;;14.10;81.30;;;;;;6212204;23;20028;-72
2021/05/21 01:00:19;;;;;;;2.15;1.10;;;14.10;81.50;;;;;;6212870;23;20001;-72
2021/05/21 01:02:44;;;;;;;2.85;1.30;;;14.10;82.20;;;;;;6213011;23;20416;-67
2021/05/21 01:05:11;;;;;;;3.17;1.20;;;14.10;81.70;;;;;;6212203;23;20054;-68
2021/05/21 01:07:37;;;;;;;3.03;1.20;;;14.10;81.20;;;;;;6212987;23;20016;-68
2021/05/21 01:10:03;;;;;;;1.48;1.05;;;14.10;80.70;;;;;;6212573;23;20008;-72
2021/05/21 01:12:29;;;;;;;3.15;1.20;;;14.20;80.80;;;;;;6212441;23;20024;-71
2021/05/21 01:14:56;;;;;;;2.53;1.15;;;14.20;80.80;;;;;;6213923;23;19996;-67
2021/05/21 01:17:22;;;;;;;2.72;1.20;;;14.20;80.60;;;;;;6213904;23;20330;-72
2021/05/21 01:19:49;;;;;;;2.97;1.20;;;14.20;81.00;;;;;;6214604;23;20001;-69
2021/05/21 01:22:15;;;;;;;3.67;1.10;;;14.20;80.90;;;;;;6214559;23;20005;-70
2021/05/21 01:24:42;;;;;;;2.25;1.13;;;14.20;80.50;;;;;;6213921;23;20036;-70
2021/05/21 01:27:09;;;;;;;3.63;2.13;;;14.20;80.50;;;;;;6214856;23;20017;-72
2021/05/21 01:29:35;;;;;;;1.67;1.17;;;14.20;80.40;;;;;;6214532;23;20001;-67
2021/05/21 01:32:01;;;;;;;2.33;1.10;;;14.20;80.60;;;;;;6213741;23;20012;-66
2021/05/21 01:34:28;;;;;;;4.82;1.23;;;14.20;80.60;;;;;;6214908;23;20373;-67
2021/05/21 01:36:54;;;;;;;2.80;1.30;;;14.20;80.70;;;;;;6212957;23;20035;-67
2021/05/21 01:39:19;;;;;;;2.20;1.00;;;14.20;80.90;;;;;;6212252;23;20015;-66
2021/05/21 01:41:45;;;;;;;3.22;1.10;;;14.20;81.20;;;;;;6214250;23;20072;-70
2021/05/21 01:44:13;;;;;;;7.35;2.20;;;14.20;80.70;;;;;;6214572;23;20028;-69
2021/05/21 01:46:39;;;;;;;2.22;1.15;;;14.10;80.90;;;;;;6213374;23;20430;-71
2021/05/21 01:49:05;;;;;;;2.47;1.10;;;14.10;80.90;;;;;;6212878;23;20004;-68
2021/05/21 01:51:33;;;;;;;1.08;0.98;;;14.10;81.20;;;;;;6214394;23;20543;-70
2021/05/21 01:54:17;;;;;;;3.60;1.40;;;14.10;80.80;;;;;;6213610;23;20001;-69
2021/05/21 01:56:44;;;;;;;3.58;1.05;;;14.20;81.40;;;;;;6214172;23;20005;-74
2021/05/21 01:59:10;;;;;;;1.75;1.10;;;14.20;81.80;;;;;;6212842;23;20334;-70
2021/05/21 02:01:36;;;;;;;1.30;0.93;;;14.20;82.30;;;;;;6213418;23;20191;-71
2021/05/21 02:04:02;;;;;;;3.97;1.20;;;14.20;82.10;;;;;;6213034;23;20093;-68
2021/05/21 02:06:28;;;;;;;2.83;1.20;;;14.20;82.60;;;;;;6214348;23;20430;-73
2021/05/21 02:08:54;;;;;;;3.03;1.10;;;14.20;82.60;;;;;;6213006;23;20040;-72
2021/05/21 02:11:19;;;;;;;3.00;1.15;;;14.20;82.40;;;;;;6214722;23;20414;-73
2021/05/21 02:13:45;;;;;;;2.22;1.40;;;14.20;83.00;;;;;;6213354;23;20047;-73
2021/05/21 02:16:11;;;;;;;4.57;1.63;;;14.20;83.00;;;;;;6214128;23;20004;-75
2021/05/21 02:18:37;;;;;;;4.70;1.40;;;14.20;83.80;;;;;;6213841;23;20004;-73
2021/05/21 02:21:03;;;;;;;4.38;1.98;;;14.10;85.10;;;;;;6213211;23;20008;-76
2021/05/21 02:23:29;;;;;;;6.78;2.30;;;14.00;86.60;;;;;;6214342;23;20430;-72
2021/05/21 02:25:54;;;;;;;8.20;2.05;;;13.80;88.10;;;;;;6213614;23;20050;-67
2021/05/21 02:28:20;;;;;;;6.18;2.30;;;13.70;89.20;;;;;;6213722;23;20015;-74
2021/05/21 02:30:46;;;;;;;10.77;2.47;;;13.50;90.00;;;;;;6214030;23;20414;-72
2021/05/21 02:33:11;;;;;;;10.32;2.55;;;13.40;90.30;;;;;;6214225;23;20300;-69
2021/05/21 02:35:37;;;;;;;13.93;3.60;;;13.30;90.50;;;;;;6213327;23;20123;-72
2021/05/21 02:38:02;;;;;;;14.13;3.45;;;13.20;90.50;;;;;;6213712;23;20004;-73
2021/05/21 02:40:28;;;;;;;10.95;2.92;;;13.10;90.60;;;;;;6214431;23;20003;-73
2021/05/21 02:42:54;;;;;;;17.67;4.28;;;13.10;90.60;;;;;;6211487;23;20011;-74
2021/05/21 02:45:20;;;;;;;16.55;4.18;;;13.00;90.90;;;;;;6212547;23;20444;-75
2021/05/21 02:47:46;;;;;;;18.63;3.40;;;13.00;90.90;;;;;;6213871;23;20012;-74
2021/05/21 02:50:11;;;;;;;16.23;4.43;;;12.90;91.10;;;;;;6212825;23;20004;-72
2021/05/21 02:52:37;;;;;;;16.50;3.35;;;12.70;91.30;;;;;;6212048;23;20005;-76
2021/05/21 02:55:04;;;;;;;16.65;3.90;;;12.60;91.60;;;;;;6213991;23;20035;-76
2021/05/21 02:57:30;;;;;;;13.48;2.85;;;12.40;92.10;;;;;;6213424;23;20011;-75
2021/05/21 02:59:56;;;;;;;14.40;3.28;;;12.30;92.30;;;;;;6213720;23;20330;-72
2021/05/21 03:02:23;;;;;;;20.85;4.00;;;12.20;92.30;;;;;;6213887;23;20007;-71
2021/05/21 03:04:49;;;;;;;16.50;3.40;;;12.10;92.60;;;;;;6212921;23;20001;-70
2021/05/21 03:07:14;;;;;;;20.92;3.60;;;12.10;92.70;;;;;;6213338;23;20165;-70
2021/05/21 03:09:40;;;;;;;15.23;3.55;;;12.00;92.80;;;;;;6211723;23;20021;-66
2021/05/21 03:12:06;;;;;;;15.85;3.75;;;12.00;92.90;;;;;;6212898;23;20058;-69
2021/05/21 03:14:32;;;;;;;13.75;5.75;;;11.90;93.10;;;;;;6211982;23;20008;-67
2021/05/21 03:16:59;;;;;;;17.10;3.35;;;11.80;93.20;;;;;;6212419;23;20358;-72
2021/05/21 03:19:24;;;;;;;13.98;2.92;;;11.80;93.40;;;;;;6213861;23;20000;-68
2021/05/21 03:21:50;;;;;;;19.52;3.83;;;11.70;93.50;;;;;;6213658;23;20389;-67
2021/05/21 03:24:15;;;;;;;13.32;3.03;;;11.70;93.60;;;;;;6212794;23;20027;-67
2021/05/21 03:26:41;;;;;;;18.92;4.03;;;11.70;93.70;;;;;;6211387;23;20456;-69
2021/05/21 03:29:06;;;;;;;10.20;2.72;;;11.60;93.70;;;;;;6213618;23;19996;-67
2021/05/21 03:31:32;;;;;;;12.70;3.80;;;11.60;93.70;;;;;;6212537;23;20000;-67
2021/05/21 03:33:57;;;;;;;12.57;3.13;;;11.70;94.10;;;;;;6213700;23;20004;-71
2021/05/21 03:36:23;;;;;;;14.52;3.05;;;11.70;94.50;;;;;;6213226;23;20004;-70
2021/05/21 03:38:49;;;;;;;19.63;3.75;;;11.70;94.20;;;;;;6212671;23;20008;-70
2021/05/21 03:41:14;;;;;;;15.43;3.15;;;11.80;94.30;;;;;;6213576;23;20005;-67
2021/05/21 03:43:40;;;;;;;13.90;3.38;;;11.70;94.20;;;;;;6213520;23;20008;-74
2021/05/21 03:46:05;;;;;;;17.55;3.65;;;11.70;94.40;;;;;;6212684;23;20051;-65
2021/05/21 03:48:31;;;;;;;12.13;3.00;;;11.70;94.20;;;;;;6213400;23;20124;-67
2021/05/21 03:50:56;;;;;;;18.25;3.60;;;11.70;94.20;;;;;;6213218;23;20072;-67
2021/05/21 03:53:22;;;;;;;12.30;3.20;;;11.70;94.50;;;;;;6212385;23;20083;-68
2021/05/21 03:55:47;;;;;;;15.10;2.92;;;11.70;94.60;;;;;;6213215;23;20047;-67
2021/05/21 03:58:13;;;;;;;14.73;3.28;;;11.70;94.60;;;;;;6213148;23;20096;-67
2021/05/21 04:00:39;;;;;;;17.33;3.58;;;11.70;94.60;;;;;;6212458;23;20001;-67
2021/05/21 04:03:06;;;;;;;12.10;3.05;;;11.70;94.80;;;;;;6213458;23;20011;-67
2021/05/21 04:05:32;;;;;;;18.77;3.05;;;11.60;94.80;;;;;;6213385;23;20004;-74
2021/05/21 04:07:58;;;;;;;18.02;3.22;;;11.50;94.80;;;;;;6212104;23;20013;-71
2021/05/21 04:10:24;;;;;;;18.70;3.58;;;11.50;95.00;;;;;;6213686;23;20015;-76
2021/05/21 04:12:49;;;;;;;17.63;3.85;;;11.40;94.90;;;;;;6213017;23;20461;-74
2021/05/21 04:15:15;;;;;;;17.48;3.15;;;11.40;94.90;;;;;;6212246;23;20005;-73
2021/05/21 04:17:41;;;;;;;17.00;3.58;;;11.50;94.70;;;;;;6212788;23;20005;-69
2021/05/21 04:20:07;;;;;;;14.15;4.22;;;11.50;94.50;;;;;;6213388;23;20004;-76
2021/05/21 04:22:33;;;;;;;14.73;2.80;;;11.60;94.60;;;;;;6212826;23;20008;-71
2021/05/21 04:25:00;;;;;;;16.40;3.17;;;11.60;94.70;;;;;;6213010;23;20005;-73
2021/05/21 04:27:25;;;;;;;15.52;2.92;;;11.60;94.70;;;;;;6212340;23;20009;-77
2021/05/21 04:29:51;;;;;;;15.07;3.35;;;11.60;94.50;;;;;;6211452;23;20041;-78
2021/05/21 04:32:16;;;;;;;14.52;3.10;;;11.70;94.50;;;;;;6212966;23;20079;-76
2021/05/21 04:34:42;;;;;;;19.67;3.00;;;11.80;94.70;;;;;;6212118;23;20020;-77
2021/05/21 04:37:08;;;;;;;18.67;3.72;;;11.80;94.60;;;;;;6213021;23;20000;-76
2021/05/21 04:39:33;;;;;;;17.05;3.33;;;11.90;94.40;;;;;;6212757;23;20080;-77
2021/05/21 04:41:59;;;;;;;20.77;3.75;;;12.00;94.30;;;;;;6212183;23;20001;-76
2021/05/21 04:44:25;;;;;;;16.48;3.47;;;12.00;94.20;;;;;;6213354;23;20032;-77
2021/05/21 04:46:50;;;;;;;13.57;3.08;;;12.10;94.20;;;;;;6212862;23;20016;-77
2021/05/21 04:49:32;;;;;;;16.42;3.33;;;12.10;94.00;;;;;;6213269;23;20028;-77
2021/05/21 04:52:02;;;;;;;10.90;3.22;;;12.20;94.00;;;;;;6215370;23;20001;-77
2021/05/21 04:54:28;;;;;;;17.80;3.58;;;12.20;94.20;;;;;;6215261;23;20003;-76
2021/05/21 04:56:54;;;;;;;16.92;3.50;;;12.20;94.10;;;;;;6214086;23;20001;-75
2021/05/21 04:59:20;;;;;;;18.65;3.20;;;12.30;93.90;;;;;;6215128;23;20459;-74
2021/05/21 05:01:45;;;;;;;9.93;2.90;;;12.20;93.90;;;;;;6214691;23;20004;-70
2021/05/21 05:04:11;;;;;;;12.50;3.42;;;12.20;93.90;;;;;;6214148;23;20008;-70
2021/05/21 05:06:37;;;;;;;13.88;3.50;;;12.20;93.90;;;;;;6214597;23;20019;-67
2021/05/21 05:09:03;;;;;;;13.50;3.30;;;12.10;93.70;;;;;;6212970;23;20097;-67
2021/05/21 05:11:28;;;;;;;12.75;2.75;;;12.10;93.50;;;;;;6213649;23;20001;-67
2021/05/21 05:13:54;;;;;;;11.23;2.47;;;12.20;93.60;;;;;;6213817;23;19996;-67
2021/05/21 05:16:19;;;;;;;13.55;3.03;;;12.20;93.50;;;;;;6214298;23;20009;-67
2021/05/21 05:18:48;;;;;;;15.38;3.00;;;12.10;93.40;;;;;;6213868;23;20028;-68
2021/05/21 05:21:13;;;;;;;14.85;3.88;;;12.10;93.40;;;;;;6214374;23;20046;-72
2021/05/21 05:23:39;;;;;;;19.80;3.67;;;12.10;93.30;;;;;;6213785;23;20072;-68
2021/05/21 05:26:04;;;;;;;16.95;3.40;;;12.10;93.50;;;;;;6213062;23;20090;-66
2021/05/21 05:28:30;;;;;;;13.43;3.35;;;12.10;93.70;;;;;;6214405;23;20004;-67
2021/05/21 05:30:56;;;;;;;16.88;2.78;;;12.10;93.70;;;;;;6213756;23;20000;-70
2021/05/21 05:33:21;;;;;;;12.90;3.13;;;12.10;93.90;;;;;;6214461;23;20011;-72
2021/05/21 05:35:47;;;;;;;11.27;3.15;;;12.00;94.00;;;;;;6214391;23;20031;-67
2021/05/21 05:38:12;;;;;;;12.60;3.25;;;12.00;94.00;;;;;;6213577;23;20295;-73
2021/05/21 05:40:38;;;;;;;16.05;4.72;;;12.00;94.10;;;;;;6214286;23;20497;-67
2021/05/21 05:43:04;;;;;;;13.27;4.68;;;12.00;94.10;;;;;;6213771;23;20001;-67
2021/05/21 05:45:29;;;;;;;18.55;4.03;;;12.00;93.90;;;;;;6210603;23;20028;-67
2021/05/21 05:47:55;;;;;;;15.80;3.75;;;12.00;93.50;;;;;;6208795;23;20067;-68
2021/05/21 05:50:21;;;;;;;17.55;4.05;;;12.00;93.20;;;;;;6214569;23;20477;-69
2021/05/21 05:52:46;;;;;;;14.43;2.85;;;12.00;92.90;;;;;;6212955;23;20055;-69
2021/05/21 05:55:12;;;;;;;12.98;3.00;;;12.10;92.40;;;;;;6213317;23;20080;-67
2021/05/21 05:57:38;;;;;;;15.68;3.25;;;12.10;92.30;;;;;;6213971;23;20035;-70
2021/05/21 06:00:05;;;;;;;15.48;4.80;;;12.20;92.40;;;;;;6211823;23;19997;-77
2021/05/21 06:02:30;;;;;;;11.95;2.95;;;12.20;91.90;;;;;;6212783;23;20004;-69
2021/05/21 06:04:57;;;;;;;16.13;4.05;;;12.30;91.60;;;;;;6213718;23;19997;-81
2021/05/21 06:07:23;;;;;;;14.95;3.58;;;12.30;91.30;;;;;;6210922;23;20021;-76
2021/05/21 06:09:48;;;;;;;12.07;2.95;;;12.40;90.90;;;;;;6213537;23;20422;-74
2021/05/21 06:12:14;;;;;;;19.52;3.35;;;12.40;90.50;;;;;;6213048;23;20530;-71
2021/05/21 06:14:40;;;;;;;19.02;3.90;;;12.50;90.30;;;;;;6212842;23;19997;-70
2021/05/21 06:17:05;;;;;;;13.13;3.50;;;12.50;89.60;;;;;;6211693;23;20001;-75
2021/05/21 06:19:31;;;;;;;17.08;3.83;;;12.50;88.30;;;;;;6213695;23;20000;-74
2021/05/21 06:21:56;;;;;;;13.90;3.67;;;12.60;87.80;;;;;;6212368;23;20072;-74
2021/05/21 06:24:22;;;;;;;14.40;4.18;;;12.60;87.50;;;;;;6213700;23;20008;-77
2021/05/21 06:29:31;;;;;;;17.52;3.53;;;12.70;86.70;;;;;;6213623;23;20460;-74
2021/05/21 06:31:57;;;;;;;12.20;3.00;;;12.80;86.00;;;;;;6214014;23;20005;-75
2021/05/21 06:34:22;;;;;;;17.02;3.38;;;12.90;85.60;;;;;;6211539;23;20024;-76
2021/05/21 06:36:48;;;;;;;13.00;3.40;;;12.90;85.40;;;;;;6213626;23;20075;-78
2021/05/21 06:39:14;;;;;;;13.63;3.28;;;13.00;85.00;;;;;;6211424;23;20913;-74
2021/05/21 06:41:39;;;;;;;15.32;3.83;;;13.10;83.60;;;;;;6211094;23;20008;-76
2021/05/21 06:44:05;;;;;;;14.70;3.63;;;13.20;81.70;;;;;;6213914;23;20414;-72
2021/05/21 06:46:31;;;;;;;14.13;3.55;;;13.20;82.10;;;;;;6213104;23;20817;-71
2021/05/21 06:48:56;;;;;;;14.32;3.45;;;13.30;81.60;;;;;;6211532;23;20398;-77
2021/05/21 06:51:23;;;;;;;11.00;3.22;;;13.40;80.40;;;;;;6214249;23;19996;-76
2021/05/21 06:53:48;;;;;;;14.27;3.60;;;13.40;79.20;;;;;;6213166;23;20012;-75
2021/05/21 06:56:15;;;;;;;16.48;4.03;;;13.50;79.00;;;;;;6213158;23;20692;-75
2021/05/21 06:58:41;;;;;;;11.13;3.03;;;13.50;78.00;;;;;;6212865;23;20008;-75
2021/05/21 07:01:07;;;;;;;12.75;2.90;;;13.70;77.80;;;;;;6213491;23;20020;-75
2021/05/21 07:03:32;;;;;;;15.52;3.00;;;13.70;77.80;;;;;;6210824;23;20004;-71
2021/05/21 07:05:58;;;;;;;14.98;3.55;;;13.80;76.70;;;;;;6213410;23;20001;-71
2021/05/21 07:08:24;;;;;;;15.68;3.55;;;13.70;75.10;;;;;;6211542;23;20071;-74
2021/05/21 07:10:50;;;;;;;13.88;3.75;;;13.70;75.70;;;;;;6211842;23;20004;-72
2021/05/21 07:13:17;;;;;;;15.75;3.22;;;13.70;75.90;;;;;;6211198;23;20008;-71
2021/05/21 07:15:43;;;;;;;14.45;3.72;;;13.80;76.20;;;;;;6211096;23;20068;-68
2021/05/21 07:18:09;;;;;;;12.93;3.40;;;14.00;76.00;;;;;;6210326;23;20009;-71
2021/05/21 07:20:36;;;;;;;13.30;4.88;;;14.10;75.00;;;;;;6212483;23;20000;-71
2021/05/21 07:23:02;;;;;;;17.65;3.65;;;14.20;74.80;;;;;;6212558;23;20011;-70
2021/05/21 07:25:28;;;;;;;15.02;3.35;;;14.20;73.70;;;;;;6211455;23;20004;-70
2021/05/21 07:27:54;;;;;;;11.27;3.53;;;14.20;74.50;;;;;;6211173;23;20096;-69
2021/05/21 07:30:20;;;;;;;15.95;3.55;;;14.30;75.50;;;;;;6211946;23;20024;-70
2021/05/21 07:32:46;;;;;;;12.38;3.38;;;14.30;75.20;;;;;;6212424;23;20031;-70
2021/05/21 07:35:12;;;;;;;17.73;4.28;;;14.50;74.60;;;;;;6212935;23;20024;-71
2021/05/21 07:37:38;;;;;;;12.63;3.42;;;14.60;75.00;;;;;;6212470;23;20016;-72
2021/05/21 07:40:06;;;;;;;10.20;2.63;;;14.70;74.20;;;;;;6213138;23;20458;-72
2021/05/21 07:42:35;;;;;;;12.77;3.00;;;14.80;74.10;;;;;;6212888;23;20014;-72
2021/05/21 07:45:00;;;;;;;13.70;5.13;;;14.90;72.90;;;;;;6210148;23;20911;-68
2021/05/21 07:47:26;;;;;;;15.02;3.72;;;15.00;72.80;;;;;;6212697;23;20047;-71
2021/05/21 07:49:52;;;;;;;15.15;3.65;;;15.10;73.00;;;;;;6213048;23;20004;-71
2021/05/21 07:52:17;;;;;;;11.38;3.22;;;15.10;72.50;;;;;;6212326;23;20373;-68
2021/05/21 07:54:43;;;;;;;13.70;3.35;;;15.30;73.70;;;;;;6212731;23;20001;-71
2021/05/21 07:57:08;;;;;;;15.15;4.13;;;15.40;73.10;;;;;;6210898;23;20004;-71
2021/05/21 07:59:34;;;;;;;14.88;3.88;;;15.40;73.50;;;;;;6212129;23;20007;-72
2021/05/21 08:01:59;;;;;;;14.60;3.00;;;15.30;73.30;;;;;;6212690;23;20043;-74
2021/05/21 08:04:25;;;;;;;17.42;3.00;;;15.20;73.90;;;;;;6212953;23;20005;-77
2021/05/21 08:06:51;;;;;;;12.40;3.60;;;15.00;75.90;;;;;;6211577;23;20016;-75
2021/05/21 08:09:17;;;;;;;8.50;2.85;;;14.80;80.30;;;;;;6212436;23;20043;-75
2021/05/21 08:11:43;;;;;;;9.95;2.35;;;14.50;82.30;;;;;;6211722;23;20373;-74
2021/05/21 08:14:09;;;;;;;6.22;1.90;;;13.90;83.50;;;;;;6211992;23;20091;-77
2021/05/21 08:16:35;;;;;;;6.95;1.63;;;13.50;85.20;;;;;;6212555;23;20009;-76
2021/05/21 08:19:01;;;;;;;4.88;1.80;;;13.20;86.40;;;;;;6210948;23;20004;-73
2021/05/21 08:21:27;;;;;;;6.35;1.85;;;13.10;87.30;;;;;;6212476;23;20005;-75
2021/05/21 08:23:54;;;;;;;3.88;1.67;;;13.20;86.30;;;;;;6213835;23;20096;-77
2021/05/21 08:26:24;;;;;;;6.43;2.03;;;13.30;86.40;;;;;;6214019;23;20005;-75
2021/05/21 08:28:50;;;;;;;6.63;1.52;;;13.50;85.70;;;;;;6214415;23;20051;-73
2021/05/21 08:31:15;;;;;;;6.95;1.80;;;13.50;85.10;;;;;;6215286;23;20001;-73
2021/05/21 08:33:44;;;;;;;4.53;2.15;;;13.50;85.40;;;;;;6214009;23;20015;-74
2021/05/21 08:36:11;;;;;;;6.35;1.90;;;13.60;85.60;;;;;;6215050;23;19997;-73
2021/05/21 08:38:38;;;;;;;8.32;2.10;;;13.50;86.20;;;;;;6212867;23;20024;-75
2021/05/21 08:41:04;;;;;;;12.80;2.50;;;13.60;87.20;;;;;;6213366;23;20005;-74
2021/05/21 08:43:31;;;;;;;11.48;2.65;;;13.60;87.40;;;;;;6214628;23;20029;-76
2021/05/21 08:45:57;;;;;;;11.55;2.85;;;13.70;87.60;;;;;;6214604;23;20000;-74
2021/05/21 08:48:23;;;;;;;12.20;4.20;;;13.80;87.30;;;;;;6213396;23;20479;-74
2021/05/21 08:50:49;;;;;;;13.18;3.63;;;13.90;87.10;;;;;;6214764;23;19996;-75
2021/05/21 08:53:15;;;;;;;10.10;2.95;;;14.10;86.70;;;;;;6214263;23;20004;-76
2021/05/21 08:55:41;;;;;;;6.95;2.40;;;14.20;85.90;;;;;;6213907;23;20005;-73
2021/05/21 08:58:11;;;;;;;13.13;3.30;;;14.50;84.90;;;;;;6214967;23;20004;-82
2021/05/21 09:00:37;;;;;;;14.98;3.13;;;14.70;84.30;;;;;;6214085;23;20047;-78
2021/05/21 09:03:20;;;;;;;12.10;2.83;;;15.00;83.50;;;;;;6214480;23;19996;-80
2021/05/21 09:06:14;;;;;;;12.73;3.35;;;15.40;82.50;;;;;;6215196;23;20080;-76
2021/05/21 09:08:44;;;;;;;10.00;3.17;;;15.70;80.60;;;;;;6213884;23;20016;-84
2021/05/21 09:11:28;;;;;;;13.03;3.73;;;15.80;77.00;;;;;;6214000;23;20039;-76
2021/05/21 09:14:12;;;;;;;14.57;4.28;;;15.90;75.20;;;;;;6214652;23;20243;-77
2021/05/21 09:16:39;;;;;;;11.38;3.00;;;16.00;75.10;;;;;;6212283;23;20083;-73
2021/05/21 09:19:09;;;;;;;11.13;2.90;;;16.30;74.10;;;;;;6214859;23;20012;-75
2021/05/21 09:21:55;;;;;;;11.63;2.60;;;16.40;72.90;;;;;;6214448;23;20001;-73
2021/05/21 09:24:31;;;;;;;10.00;2.80;;;16.50;71.40;;;;;;6214230;23;20372;-68
2021/05/21 09:26:57;;;;;;;11.10;2.75;;;16.10;73.80;;;;;;6212990;23;20346;-69
2021/05/21 09:29:46;;;;;;;9.48;2.13;;;15.20;78.90;;;;;;6214858;23;20410;-68
2021/05/21 09:32:27;;;;;;;8.02;1.85;;;14.30;83.50;;;;;;6214579;23;20005;-70
2021/05/21 09:35:05;;;;;;;8.95;3.30;;;13.80;86.10;;;;;;6211246;23;20008;-73
2021/05/21 09:37:33;;;;;;;9.82;3.17;;;13.70;89.50;;;;;;6213081;23;20011;-69
2021/05/21 09:40:08;;;;;;;12.75;3.15;;;13.80;90.20;;;;;;6214044;23;20424;-74
2021/05/21 09:42:47;;;;;;;9.60;3.00;;;13.90;90.10;;;;;;6212919;23;20373;-76
2021/05/21 09:45:17;;;;;;;7.47;2.10;;;14.00;88.40;;;;;;6213103;23;20078;-70
2021/05/21 09:47:58;;;;;;;6.82;2.40;;;14.10;87.90;;;;;;6213597;23;20311;-73
2021/05/21 09:50:49;;;;;;;11.45;2.58;;;14.30;87.90;;;;;;6213217;23;20000;-73
2021/05/21 09:53:24;;;;;;;10.45;3.13;;;14.50;88.40;;;;;;6214601;23;20059;-69
2021/05/21 09:55:50;;;;;;;9.07;2.72;;;14.80;87.50;;;;;;6214583;23;19997;-73
2021/05/21 09:58:26;;;;;;;11.27;3.00;;;15.10;86.50;;;;;;6213843;23;20004;-76
2021/05/21 10:01:16;;;;;;;7.00;3.00;;;15.50;86.00;;;;;;6214046;23;20441;-76
2021/05/21 10:03:49;;;;;;;17.02;3.67;;;15.70;84.60;;;;;;6211146;23;20012;-76
2021/05/21 10:06:17;;;;;;;16.35;3.72;;;15.80;83.00;;;;;;6212048;23;20104;-73
2021/05/21 10:08:45;;;;;;;10.15;3.30;;;15.90;81.80;;;;;;6213555;23;20016;-76
2021/05/21 10:11:11;;;;;;;12.52;3.70;;;15.90;80.50;;;;;;6214293;23;20009;-76
2021/05/21 10:13:39;;;;;;;13.70;3.33;;;16.00;79.10;;;;;;6212029;23;20088;-79
2021/05/21 10:16:05;;;;;;;14.65;3.70;;;15.90;78.40;;;;;;6214084;23;20004;-73
2021/05/21 10:18:34;;;;;;;13.77;4.50;;;15.90;79.40;;;;;;6214237;23;20083;-73
2021/05/21 10:21:00;;;;;;;17.58;3.65;;;15.90;79.10;;;;;;6212813;23;20064;-77
2021/05/21 10:23:42;;;;;;;9.88;3.10;;;15.90;78.90;;;;;;6213931;23;20306;-78
2021/05/21 10:26:13;;;;;;;10.65;3.35;;;15.90;79.30;;;;;;6212928;23;20356;-77
2021/05/21 10:28:41;;;;;;;;;;;15.90;79.70;;;;;;6214212;23;20013;-71
2021/05/21 10:31:09;;;;;;;9.93;2.75;;;15.90;79.60;;;;;;6212146;23;19907;-79
2021/05/21 10:33:39;;;;;;;10.30;3.00;;;15.90;79.10;;;;;;6212676;23;20054;-78
2021/05/21 10:36:22;;;;;;;10.02;2.97;;;16.00;78.60;;;;;;6212051;23;20001;-74
2021/05/21 10:39:05;;;;;;;13.43;3.85;;;16.20;77.80;;;;;;6212496;23;20040;-75
2021/05/21 10:41:31;;;;;;;12.57;3.53;;;16.30;75.00;;;;;;6213247;23;20001;-72
2021/05/21 10:43:59;;;;;;;10.35;3.28;;;16.40;72.40;;;;;;6212166;23;20417;-75
2021/05/21 10:46:26;;;;;;;14.32;3.20;;;16.60;72.90;;;;;;6213943;23;20000;-73
2021/05/21 10:48:53;;;;;;;8.98;2.78;;;16.60;72.70;;;;;;6212476;23;20004;-73
2021/05/21 10:51:19;;;;;;;9.90;3.05;;;16.60;70.70;;;;;;6213602;23;20119;-77
2021/05/21 10:53:47;;;;;;;12.55;2.70;;;16.60;71.00;;;;;;6213383;23;20000;-76
2021/05/21 10:56:14;;;;;;;7.55;2.65;;;16.70;71.30;;;;;;6212998;23;19997;-76
2021/05/21 10:58:53;;;;;;;9.45;3.13;;;16.70;71.80;;;;;;6213518;23;20422;-73
2021/05/21 11:01:21;;;;;;;10.10;3.17;;;16.70;72.50;;;;;;6212592;23;20005;-74
2021/05/21 11:03:58;;;;;;;11.10;2.65;;;16.50;71.50;;;;;;6213561;23;20000;-76
2021/05/21 11:06:25;;;;;;;6.72;2.70;;;16.30;71.90;;;;;;6213602;23;20015;-72
2021/05/21 11:09:07;;;;;;;7.05;2.15;;;16.30;73.20;;;;;;6212389;23;20013;-74
2021/05/21 11:11:45;;;;;;;8.43;2.50;;;16.20;72.40;;;;;;6213620;23;20005;-72
2021/05/21 11:14:41;;;;;;;7.85;3.05;;;16.10;73.60;;;;;;6213458;23;20025;-76
2021/05/21 11:17:24;;;;;;;11.25;3.22;;;16.10;73.20;;;;;;6212660;23;20004;-72
2021/05/21 11:19:57;;;;;;;9.60;2.70;;;16.20;75.10;;;;;;6212983;23;20007;-77
2021/05/21 11:22:25;;;;;;;9.10;2.78;;;16.30;75.30;;;;;;6213303;23;20068;-72
2021/05/21 11:25:03;;;;;;;12.27;3.78;;;16.50;75.10;;;;;;6213030;23;20355;-76
2021/05/21 11:27:31;;;;;;;9.18;2.53;;;16.60;74.50;;;;;;6213677;23;20367;-76
2021/05/21 11:29:58;;;;;;;10.15;3.63;;;16.80;74.10;;;;;;6211568;23;20001;-78
2021/05/21 11:32:25;;;;;;;9.45;2.47;;;16.90;73.50;;;;;;6214071;23;20004;-74
2021/05/21 11:34:52;;;;;;;6.93;2.58;;;17.00;72.70;;;;;;6211845;23;20004;-76
2021/05/21 11:37:21;;;;;;;8.07;2.60;;;17.00;72.40;;;;;;6212425;23;20483;-78
2021/05/21 11:39:47;;;;;;;10.75;2.85;;;17.10;72.40;;;;;;6213113;23;20023;-74
2021/05/21 11:42:12;;;;;;;13.38;3.15;;;16.90;71.60;;;;;;6213208;23;20000;-71
2021/05/21 11:44:38;;;;;;;15.02;3.20;;;16.60;74.00;;;;;;6213066;23;20326;-73
2021/05/21 11:47:06;;;;;;;10.07;2.88;;;16.10;76.70;;;;;;6212999;23;20015;-73
2021/05/21 11:49:32;;;;;;;11.15;2.60;;;15.60;80.00;;;;;;6213493;23;20009;-71
2021/05/21 11:52:05;;;;;;;11.55;2.95;;;15.00;82.90;;;;;;6212505;23;20008;-76
2021/05/21 11:54:31;;;;;;;7.53;2.30;;;14.60;85.20;;;;;;6213406;23;20028;-72
2021/05/21 11:56:59;;;;;;;7.97;2.60;;;14.40;87.20;;;;;;6212910;23;20036;-73
2021/05/21 11:59:25;;;;;;;11.10;2.60;;;14.40;88.30;;;;;;6210961;23;20480;-77
2021/05/21 12:01:59;;;;;;;7.72;2.75;;;14.40;87.80;;;;;;6213027;23;20001;-75
2021/05/21 12:04:35;;;;;;;11.85;3.05;;;14.60;88.40;;;;;;6211090;23;20004;-76
2021/05/21 12:07:02;;;;;;;12.98;3.45;;;14.70;89.30;;;;;;6213077;23;20089;-75
2021/05/21 12:09:28;;;;;;;10.98;3.20;;;14.80;89.10;;;;;;6213282;23;20017;-76
2021/05/21 12:11:55;;;;;;;9.98;3.00;;;14.90;88.60;;;;;;6212219;23;20298;-76
2021/05/21 12:14:27;;;;;;;11.30;3.55;;;14.90;88.10;;;;;;6213337;23;19997;-77
2021/05/21 12:16:54;;;;;;;10.85;2.75;;;14.90;88.90;;;;;;6212980;23;20008;-73
2021/05/21 12:19:21;;;;;;;11.35;3.30;;;15.00;89.20;;;;;;6212354;23;20128;-74
2021/05/21 12:21:49;;;;;;;9.63;3.10;;;15.00;88.20;;;;;;6211543;23;20392;-78
2021/05/21 12:24:19;;;;;;;14.60;3.22;;;15.10;87.70;;;;;;6211370;23;20008;-79
2021/05/21 12:26:48;;;;;;;15.45;4.30;;;15.20;87.20;;;;;;6211905;23;20008;-73
2021/05/21 12:29:15;;;;;;;13.20;2.85;;;15.30;85.80;;;;;;6213066;23;19997;-77
2021/05/21 12:31:58;;;;;;;12.80;2.83;;;15.40;84.30;;;;;;6212848;23;20322;-76
2021/05/21 12:34:24;;;;;;;11.05;3.88;;;15.50;83.90;;;;;;6212849;23;19996;-82
2021/05/21 12:36:58;;;;;;;12.30;3.70;;;15.70;83.70;;;;;;6211872;23;20004;-81
2021/05/21 12:39:32;;;;;;;11.60;3.55;;;15.90;82.10;;;;;;6213529;23;20072;-78
2021/05/21 12:41:59;;;;;;;10.55;2.88;;;16.10;80.40;;;;;;6213437;23;20008;-80
2021/05/21 12:44:25;;;;;;;17.02;3.10;;;16.20;79.10;;;;;;6213241;23;20000;-74
2021/05/21 12:46:51;;;;;;;11.52;3.15;;;16.30;78.50;;;;;;6210088;23;20120;-77